Time;durP1;ratioP1;P1;durP2;ratioP2;P2;SDS_P1;SDS_P2;PMS_P1;PMS_P2;Temp;Humidity;BMP_temperature;BMP_pressure;BME280_temperature;BME280_humidity;BME280_pressure;Samples;Min_cycle;Max_cycle;Signal;HPM_P1;HPM_P2
2022/04/09 00:02:23;;;;;;;14.02;1.92;;;;;;;13.79;60.01;100235.56;5020093;28;20034;-49
2022/04/09 00:04:49;;;;;;;21.07;3.03;;;;;;;13.53;62.18;100226.09;5018260;28;20149;-49
2022/04/09 00:07:15;;;;;;;13.45;2.78;;;;;;;14.18;58.66;100232.44;5019702;28;20057;-50
2022/04/09 00:09:41;;;;;;;13.00;2.23;;;;;;;13.80;60.82;100234.53;5019303;28;20064;-51
2022/04/09 00:12:08;;;;;;;9.17;2.60;;;;;;;14.04;60.46;100242.59;5023187;28;20275;-49
2022/04/09 00:14:34;;;;;;;14.75;2.28;;;;;;;14.31;58.69;100247.53;5030464;28;20069;-50
2022/04/09 00:17:00;;;;;;;15.55;3.58;;;;;;;14.12;60.03;100249.50;5030646;28;20054;-48
2022/04/09 00:19:26;;;;;;;17.77;2.28;;;;;;;13.54;63.11;100247.31;5030071;28;20046;-53
2022/04/09 00:21:51;;;;;;;27.03;3.23;;;;;;;13.95;61.57;100252.09;5030419;28;20042;-50
2022/04/09 00:24:16;;;;;;;9.73;2.70;;;;;;;13.86;61.81;100262.34;5030031;28;20045;-50
2022/04/09 00:26:42;;;;;;;13.63;2.57;;;;;;;13.55;64.55;100270.47;5030534;28;20030;-47
2022/04/09 00:29:07;;;;;;;13.63;2.50;;;;;;;13.57;63.44;100262.97;5031181;28;20057;-50
2022/04/09 00:31:34;;;;;;;17.63;4.22;;;;;;;13.82;61.37;100280.00;5033683;28;20034;-48
2022/04/09 00:34:00;;;;;;;14.77;2.33;;;;;;;13.60;62.77;100284.00;5033729;28;20049;-49
2022/04/09 00:36:26;;;;;;;14.02;2.15;;;;;;;13.96;60.95;100285.97;5035955;28;20038;-47
2022/04/09 00:38:52;;;;;;;15.02;1.95;;;;;;;13.43;62.79;100289.22;5033651;28;20034;-49
2022/04/09 00:41:18;;;;;;;12.32;2.83;;;;;;;13.66;62.59;100286.84;5032387;28;20037;-51
2022/04/09 00:43:44;;;;;;;9.27;2.63;;;;;;;13.77;61.60;100299.50;5033479;28;20037;-50
2022/04/09 00:46:12;;;;;;;10.55;2.22;;;;;;;13.65;62.41;100298.66;5032809;28;20062;-52
2022/04/09 00:48:40;;;;;;;11.85;2.80;;;;;;;13.46;63.25;100304.06;5031427;28;20029;-47
2022/04/09 00:51:05;;;;;;;15.35;3.03;;;;;;;13.34;63.79;100301.31;5033101;28;20060;-48
2022/04/09 00:53:37;;;;;;;8.50;1.57;;;;;;;13.43;64.45;100304.53;5032627;28;20062;-47
2022/04/09 00:56:13;;;;;;;16.23;3.30;;;;;;;13.42;62.39;100316.28;5032953;28;20101;-47
2022/04/09 00:58:55;;;;;;;15.82;2.63;;;;;;;13.71;62.75;100319.22;5032345;28;20105;-48
2022/04/09 01:01:27;;;;;;;14.80;2.70;;;;;;;13.91;60.86;100322.44;5027531;28;20045;-47
2022/04/09 01:03:55;;;;;;;20.35;3.03;;;;;;;14.28;59.17;100331.34;5032821;28;20040;-49
2022/04/09 01:06:21;;;;;;;22.55;2.83;;;;;;;14.35;58.29;100332.09;5032338;28;20110;-51
2022/04/09 01:08:47;;;;;;;12.65;1.92;;;;;;;14.25;58.50;100334.53;5032435;28;20059;-51
2022/04/09 01:11:14;;;;;;;12.77;2.00;;;;;;;14.02;58.04;100338.81;5032576;28;20038;-49
2022/04/09 01:13:41;;;;;;;10.10;2.00;;;;;;;13.87;60.20;100339.25;5031789;28;20280;-48
2022/04/09 01:16:08;;;;;;;17.50;3.05;;;;;;;13.81;60.52;100338.28;5032714;28;20026;-50
2022/04/09 01:18:34;;;;;;;15.40;2.90;;;;;;;13.82;60.87;100349.88;5037668;28;20038;-51
2022/04/09 01:21:04;;;;;;;17.67;3.00;;;;;;;13.50;62.37;100350.91;5032169;28;20033;-54
2022/04/09 01:23:31;;;;;;;13.55;2.67;;;;;;;13.84;60.15;100345.91;5032934;28;20041;-50
2022/04/09 01:26:04;;;;;;;15.20;2.55;;;;;;;13.57;61.04;100353.53;5033001;28;20034;-48
2022/04/09 01:28:31;;;;;;;17.00;2.58;;;;;;;14.03;60.05;100351.19;5031679;28;20038;-48
2022/04/09 01:30:57;;;;;;;18.17;2.78;;;;;;;13.55;62.21;100364.47;5032031;28;20034;-47
2022/04/09 01:33:23;;;;;;;20.45;2.80;;;;;;;13.94;60.86;100364.16;5031689;28;20049;-51
2022/04/09 01:35:50;;;;;;;9.57;2.10;;;;;;;14.03;60.09;100368.16;5032696;28;20093;-47
2022/04/09 01:38:17;;;;;;;17.92;2.55;;;;;;;14.16;59.73;100377.06;5031508;28;20097;-51
2022/04/09 01:40:43;;;;;;;10.73;2.05;;;;;;;14.14;60.21;100385.38;5031375;28;20034;-50
2022/04/09 01:43:09;;;;;;;12.85;2.15;;;;;;;13.50;64.20;100390.41;5031978;28;20038;-51
2022/04/09 01:45:35;;;;;;;;;;;;;;;14.05;61.92;100392.13;5031695;28;20049;-50
2022/04/09 01:48:05;;;;;;;18.83;3.90;;;;;;;13.80;62.31;100395.78;5031772;28;19913;-50
2022/04/09 01:50:32;;;;;;;14.45;2.65;;;;;;;13.33;65.17;100402.53;5032429;28;20038;-46
2022/04/09 01:52:59;;;;;;;12.82;2.20;;;;;;;13.86;62.90;100402.94;5031722;28;20034;-47
2022/04/09 01:55:26;;;;;;;24.45;3.83;;;;;;;13.72;63.80;100418.41;5032497;28;20038;-48
2022/04/09 01:57:51;;;;;;;19.23;2.72;;;;;;;13.93;62.82;100432.41;5031396;28;20110;-49
2022/04/09 02:00:22;;;;;;;12.23;2.20;;;;;;;14.35;60.01;100426.22;5031139;28;20042;-47
2022/04/09 02:02:51;;;;;;;17.42;2.67;;;;;;;14.52;59.14;100449.75;5031558;28;20062;-49
2022/04/09 02:05:17;;;;;;;;;;;;;;;14.56;58.83;100446.38;5032473;28;20034;-55
2022/04/09 02:07:47;;;;;;;26.88;2.47;;;;;;;14.58;58.50;100443.47;5043432;28;19921;-47
2022/04/09 02:10:15;;;;;;;10.43;2.22;;;;;;;14.30;59.64;100439.53;5031581;28;20033;-53
2022/04/09 02:12:42;;;;;;;16.15;3.40;;;;;;;14.12;60.68;100456.56;5032046;28;20037;-48
2022/04/09 02:15:11;;;;;;;20.50;2.58;;;;;;;13.95;61.59;100456.38;5011490;28;20038;-47
2022/04/09 02:17:39;;;;;;;16.95;2.78;;;;;;;13.91;61.81;100466.75;5011370;28;20030;-49
2022/04/09 02:20:06;;;;;;;20.45;2.85;;;;;;;14.38;59.41;100463.44;5011166;28;20041;-51
2022/04/09 02:22:39;;;;;;;20.73;3.42;;;;;;;14.46;59.09;100463.09;5012268;28;20042;-52
2022/04/09 02:25:07;;;;;;;23.45;3.05;;;;;;;14.19;60.24;100468.88;5011389;28;20112;-50
2022/04/09 02:27:37;;;;;;;25.55;2.75;;;;;;;13.97;60.88;100471.25;5012203;28;20064;-53
2022/04/09 02:30:05;;;;;;;19.08;2.60;;;;;;;14.13;60.03;100485.91;5011241;28;20106;-52
2022/04/09 02:32:41;;;;;;;21.75;3.33;;;;;;;14.49;59.01;100477.97;5010964;28;20035;-49
2022/04/09 02:35:09;;;;;;;11.23;3.00;;;;;;;14.45;59.08;100487.56;5011120;28;20038;-52
2022/04/09 02:37:36;;;;;;;14.10;2.30;;;;;;;13.86;59.99;100480.91;5011003;28;20044;-51
2022/04/09 02:40:02;;;;;;;19.07;3.17;;;;;;;14.68;57.94;100494.03;5011386;28;20050;-50
2022/04/09 02:42:28;;;;;;;;;;;;;;;14.46;58.66;100522.28;5011554;28;20351;-51
2022/04/09 02:44:55;;;;;;;14.15;2.50;;;;;;;14.47;59.43;100517.72;5010749;28;19918;-48
2022/04/09 02:47:21;;;;;;;21.30;3.05;;;;;;;13.74;64.79;100504.19;5010918;28;20038;-51
2022/04/09 02:49:48;;;;;;;18.88;3.15;;;;;;;14.11;65.15;100497.94;5011147;28;20121;-53
2022/04/09 02:52:14;;;;;;;12.25;2.38;;;;;;;14.53;61.54;100502.53;5010270;28;20038;-49
2022/04/09 02:54:39;;;;;;;12.60;2.73;;;;;;;14.49;61.02;100504.88;5011497;28;20032;-51
2022/04/09 02:57:05;;;;;;;18.27;3.00;;;;;;;14.18;61.19;100499.50;5011911;28;20064;-48
2022/04/09 02:59:35;;;;;;;16.83;3.60;;;;;;;13.75;63.79;100501.28;5010587;28;20042;-51
2022/04/09 03:02:00;;;;;;;10.10;2.50;;;;;;;14.25;62.04;100509.34;5005155;28;20105;-53
2022/04/09 03:04:27;;;;;;;13.55;2.28;;;;;;;14.33;61.42;100511.72;5009600;28;20038;-51
2022/04/09 03:06:52;;;;;;;18.03;2.30;;;;;;;14.17;61.45;100518.53;5010965;28;20038;-53
2022/04/09 03:09:18;;;;;;;16.13;2.30;;;;;;;14.21;61.66;100519.75;5011334;28;20041;-49
2022/04/09 03:11:43;;;;;;;17.23;1.70;;;;;;;13.81;61.65;100515.66;5011810;28;20038;-51
2022/04/09 03:14:09;;;;;;;5.10;1.63;;;;;;;13.45;63.11;100520.00;5022191;28;20153;-50
2022/04/09 03:16:34;;;;;;;7.13;1.60;;;;;;;14.06;60.70;100522.81;5030448;28;20034;-51
2022/04/09 03:19:00;;;;;;;11.07;1.57;;;;;;;13.67;60.44;100524.94;5031215;28;20067;-51
2022/04/09 03:21:26;;;;;;;6.30;1.42;;;;;;;14.12;58.84;100527.31;5030146;28;20041;-51
2022/04/09 03:23:52;;;;;;;19.17;1.80;;;;;;;13.95;59.28;100532.47;5030090;28;20053;-54
2022/04/09 03:26:19;;;;;;;21.33;1.77;;;;;;;14.25;57.99;100541.59;5030732;28;20042;-53
2022/04/09 03:28:51;;;;;;;4.70;1.30;;;;;;;13.86;59.48;100542.72;5030320;28;20072;-51
2022/04/09 03:31:17;;;;;;;11.25;1.77;;;;;;;13.59;61.21;100543.00;5030209;28;20042;-51
2022/04/09 03:33:42;;;;;;;11.07;2.03;;;;;;;13.80;60.05;100546.28;5030043;28;20038;-49
2022/04/09 03:36:14;;;;;;;17.60;2.72;;;;;;;13.97;59.41;100551.06;5025911;28;20065;-50
2022/04/09 03:38:41;;;;;;;35.70;5.07;;;;;;;13.85;60.08;100551.81;5013649;28;20089;-48
2022/04/09 03:41:07;;;;;;;24.42;6.30;;;;;;;13.76;61.30;100551.31;5030288;28;20034;-50
2022/04/09 03:43:46;;;;;;;41.65;9.52;;;;;;;13.37;64.36;100557.84;5029871;28;20064;-46
2022/04/09 03:46:11;;;;;;;;;;;;;;;13.80;62.88;100589.28;5030378;28;20083;-46
2022/04/09 03:48:37;;;;;;;19.93;3.10;;;;;;;14.14;61.83;100605.03;5029210;28;19913;-50
2022/04/09 03:51:03;;;;;;;18.20;2.30;;;;;;;13.47;65.37;100585.06;5029928;28;20069;-48
2022/04/09 03:53:29;;;;;;;19.77;2.55;;;;;;;13.32;68.30;100575.44;5030063;28;20046;-48
2022/04/09 03:56:00;;;;;;;19.98;3.38;;;;;;;13.46;69.11;100573.50;5029606;28;20190;-48
2022/04/09 03:58:26;;;;;;;8.98;2.15;;;;;;;13.70;68.26;100579.03;5029898;28;20048;-48
2022/04/09 04:00:54;;;;;;;12.98;1.83;;;;;;;13.75;66.74;100578.38;5029918;28;20030;-49
2022/04/09 04:03:23;;;;;;;16.83;2.38;;;;;;;14.05;64.81;100580.31;5029315;28;20061;-48
2022/04/09 04:05:49;;;;;;;11.90;2.58;;;;;;;13.80;65.35;100583.91;5032960;28;20520;-53
2022/04/09 04:08:15;;;;;;;11.75;2.03;;;;;;;13.43;65.23;100589.25;5029052;28;20042;-49
2022/04/09 04:10:41;;;;;;;17.73;3.03;;;;;;;13.17;67.88;100591.09;5036039;28;20032;-47
2022/04/09 04:13:18;;;;;;;22.88;2.95;;;;;;;13.82;64.68;100597.94;5033959;28;20465;-50
2022/04/09 04:15:44;;;;;;;10.05;2.78;;;;;;;13.32;66.68;100596.13;5033074;28;20056;-49
2022/04/09 04:18:11;;;;;;;23.00;2.63;;;;;;;13.69;65.36;100588.16;5036318;28;20051;-51
2022/04/09 04:20:39;;;;;;;13.90;2.80;;;;;;;13.69;64.68;100603.47;5032755;28;20858;-50
2022/04/09 04:23:05;;;;;;;;;;;;;;;13.07;67.29;100607.69;5033143;28;20041;-49
2022/04/09 04:25:32;;;;;;;11.32;3.08;;;;;;;13.50;65.56;100613.38;5032995;28;19918;-50
2022/04/09 04:27:58;;;;;;;23.13;4.05;;;;;;;13.29;65.98;100610.81;5032514;28;20073;-52
2022/04/09 04:30:24;;;;;;;16.88;2.92;;;;;;;13.27;66.21;100612.09;5038957;28;20092;-52
2022/04/09 04:32:50;;;;;;;21.75;3.30;;;;;;;12.84;68.70;100609.06;5033089;28;20034;-49
2022/04/09 04:35:19;;;;;;;27.05;3.85;;;;;;;13.55;64.64;100611.66;5036460;28;20041;-46
2022/04/09 04:37:46;;;;;;;14.98;2.58;;;;;;;13.47;64.91;100633.44;5036094;28;20093;-47
2022/04/09 04:40:15;;;;;;;16.17;2.65;;;;;;;13.20;66.00;100628.25;5032377;28;20038;-50
2022/04/09 04:42:49;;;;;;;21.60;3.00;;;;;;;13.21;66.11;100624.50;5030811;28;20030;-52
2022/04/09 04:45:15;;;;;;;14.50;2.40;;;;;;;13.77;63.12;100627.34;5032631;28;20133;-50
2022/04/09 04:47:46;;;;;;;15.05;3.72;;;;;;;13.58;64.23;100630.00;5033377;28;20144;-50
2022/04/09 04:50:17;;;;;;;30.75;6.70;;;;;;;13.74;63.34;100635.88;5032098;28;20034;-52
2022/04/09 04:52:43;;;;;;;32.67;7.90;;;;;;;13.31;65.06;100632.88;5032537;28;20034;-50
2022/04/09 04:55:11;;;;;;;29.63;6.25;;;;;;;13.24;65.16;100637.50;5026528;28;20055;-50
2022/04/09 04:57:43;;;;;;;28.17;6.78;;;;;;;13.32;65.41;100650.66;5032419;28;20037;-52
2022/04/09 05:00:10;;;;;;;38.67;9.90;;;;;;;13.08;68.67;100657.66;5034749;28;20098;-51
2022/04/09 05:02:39;;;;;;;29.77;7.90;;;;;;;13.34;66.29;100656.63;5032101;28;20053;-51
2022/04/09 05:05:06;;;;;;;34.50;8.43;;;;;;;13.59;64.83;100652.34;5032011;28;20038;-50
2022/04/09 05:07:45;;;;;;;;;;;;;;;13.36;66.45;100658.25;5032517;28;20041;-48
2022/04/09 05:10:16;;;;;;;23.35;6.30;;;;;;;13.75;63.88;100662.53;5033103;28;19917;-51
2022/04/09 05:12:42;;;;;;;29.30;6.72;;;;;;;13.36;66.06;100671.69;5032083;28;20116;-46
2022/04/09 05:15:11;;;;;;;36.13;8.60;;;;;;;13.59;65.65;100679.22;5032407;28;20041;-48
2022/04/09 05:17:37;;;;;;;38.72;8.48;;;;;;;13.18;66.10;100692.09;5031338;28;20038;-52
2022/04/09 05:20:05;;;;;;;20.75;4.75;;;;;;;12.72;70.43;100689.44;5031687;28;20062;-49
2022/04/09 05:22:32;;;;;;;28.17;4.90;;;;;;;12.70;71.15;100696.88;5031662;28;20049;-47
2022/04/09 05:25:04;;;;;;;50.30;15.05;;;;;;;12.64;69.50;100695.03;5031627;28;20034;-52
2022/04/09 05:27:30;;;;;;;53.75;12.68;;;;;;;13.60;65.15;100702.34;5031556;28;20045;-50
2022/04/09 05:30:00;;;;;;;56.95;12.07;;;;;;;13.70;64.46;100699.16;5031770;28;20042;-49
2022/04/09 05:32:35;;;;;;;42.67;10.10;;;;;;;12.95;67.05;100701.50;5022179;28;20033;-52
2022/04/09 05:35:04;;;;;;;29.77;5.90;;;;;;;13.17;65.35;100706.56;5021387;28;20023;-49
2022/04/09 05:37:31;;;;;;;21.05;4.15;;;;;;;13.13;64.61;100714.19;5023198;28;20500;-50
2022/04/09 05:39:56;;;;;;;14.90;3.00;;;;;;;13.40;63.31;100718.59;5031866;28;20030;-53
2022/04/09 05:42:25;;;;;;;12.85;2.38;;;;;;;13.38;61.83;100726.00;5025919;28;20042;-52
2022/04/09 05:44:52;;;;;;;13.23;2.42;;;;;;;13.44;61.57;100722.50;5031430;28;20124;-51
2022/04/09 05:47:20;;;;;;;16.00;3.17;;;;;;;13.54;61.57;100730.91;5020667;28;20037;-49
2022/04/09 05:49:46;;;;;;;20.58;3.28;;;;;;;13.05;62.61;100738.63;5020611;28;20034;-46
2022/04/09 05:52:12;;;;;;;19.02;3.50;;;;;;;13.38;62.99;100736.75;5026212;28;20051;-49
2022/04/09 05:54:39;;;;;;;17.70;4.63;;;;;;;13.84;61.40;100730.28;5020042;28;20034;-50
2022/04/09 05:57:05;;;;;;;16.83;4.55;;;;;;;14.22;59.20;100741.94;5022110;28;20038;-55
2022/04/09 05:59:35;;;;;;;24.75;4.55;;;;;;;14.14;58.53;100756.47;5018979;28;20040;-51
2022/04/09 06:02:01;;;;;;;21.13;3.58;;;;;;;14.21;58.57;100751.03;5022173;28;20061;-53
2022/04/09 06:04:26;;;;;;;18.73;4.93;;;;;;;14.07;61.01;100750.34;5018187;28;20038;-51
2022/04/09 06:06:55;;;;;;;13.15;3.15;;;;;;;14.34;58.49;100756.28;5023485;28;20061;-53
2022/04/09 06:09:23;;;;;;;17.52;3.85;;;;;;;15.30;57.25;100757.66;5031106;28;20124;-51
2022/04/09 06:11:52;;;;;;;28.33;6.43;;;;;;;14.37;58.44;100760.41;5028446;28;20034;-52
2022/04/09 06:14:22;;;;;;;18.85;4.55;;;;;;;14.62;58.89;100772.97;5027205;28;20053;-54
2022/04/09 06:16:49;;;;;;;13.52;4.80;;;;;;;14.47;59.40;100782.22;5034219;28;20046;-51
2022/04/09 06:19:15;;;;;;;12.15;3.15;;;;;;;14.52;59.87;100778.88;5024813;28;20038;-51
2022/04/09 06:21:41;;;;;;;19.45;4.40;;;;;;;14.36;59.76;100791.03;5026658;28;20032;-52
2022/04/09 06:24:10;;;;;;;16.73;3.03;;;;;;;15.11;57.26;100793.75;5013718;28;20030;-52
2022/04/09 06:26:36;;;;;;;19.17;2.70;;;;;;;14.33;59.22;100802.25;5017474;28;20050;-48
2022/04/09 06:29:02;;;;;;;18.00;2.45;;;;;;;15.13;57.52;100810.50;5027462;28;20034;-55
2022/04/09 06:31:28;;;;;;;23.48;3.13;;;;;;;15.40;56.36;100816.38;5025237;28;20117;-52
2022/04/09 06:33:54;;;;;;;18.05;2.60;;;;;;;15.20;57.52;100814.75;5019639;28;20098;-51
2022/04/09 06:36:22;;;;;;;9.20;2.25;;;;;;;15.01;57.18;100818.53;5021174;28;20100;-51
2022/04/09 06:38:47;;;;;;;;;;;;;;;14.85;56.72;100820.75;5031362;28;20034;-52
2022/04/09 06:41:23;;;;;;;18.10;4.82;;;;;;;15.11;56.29;100828.75;5023301;28;19913;-55
2022/04/09 06:43:49;;;;;;;13.55;1.88;;;;;;;15.22;54.42;100830.69;5024055;28;20076;-51
2022/04/09 06:46:23;;;;;;;9.40;1.70;;;;;;;14.65;55.82;100841.66;5017371;28;20026;-48
2022/04/09 06:49:01;;;;;;;11.73;2.00;;;;;;;14.29;55.44;100844.06;5021288;28;20593;-50
2022/04/09 06:51:47;;;;;;;7.15;2.42;;;;;;;15.48;54.98;100840.31;5022040;28;20052;-49
2022/04/09 06:54:32;;;;;;;17.92;5.15;;;;;;;15.51;54.07;100839.03;5016507;28;20198;-50
2022/04/09 06:56:58;;;;;;;24.83;7.30;;;;;;;15.74;53.91;100848.25;5018256;28;20049;-53
2022/04/09 06:59:25;;;;;;;25.87;7.53;;;;;;;15.31;56.24;100844.66;5025923;28;20037;-55
2022/04/09 07:01:51;;;;;;;21.63;6.28;;;;;;;15.71;55.13;100846.03;5017437;28;20030;-49
2022/04/09 07:04:16;;;;;;;28.97;6.67;;;;;;;15.87;53.57;100855.31;5011035;28;20058;-55
2022/04/09 07:06:45;;;;;;;16.80;5.10;;;;;;;15.65;55.59;100857.69;5022846;28;20033;-52
2022/04/09 07:09:11;;;;;;;20.92;4.18;;;;;;;15.82;53.61;100861.41;5021549;28;20101;-51
2022/04/09 07:11:36;;;;;;;9.63;2.93;;;;;;;15.00;54.38;100850.03;5019849;28;20079;-50
2022/04/09 07:14:02;;;;;;;17.00;2.97;;;;;;;15.86;53.38;100859.88;5027116;28;20050;-49
2022/04/09 07:16:27;;;;;;;13.83;3.17;;;;;;;15.12;53.83;100871.66;5020964;28;20299;-46
2022/04/09 07:18:53;;;;;;;8.60;1.27;;;;;;;14.94;54.33;100866.25;5028911;28;20030;-47
2022/04/09 07:21:20;;;;;;;7.87;2.23;;;;;;;15.41;53.70;100863.00;5018232;28;20097;-51
2022/04/09 07:23:45;;;;;;;12.35;2.38;;;;;;;16.53;52.01;100881.50;5022232;28;20072;-53
2022/04/09 07:26:10;;;;;;;8.20;2.57;;;;;;;15.50;53.17;100885.91;5021927;28;20033;-51
2022/04/09 07:28:36;;;;;;;5.82;1.58;;;;;;;15.67;53.47;100879.84;5020566;28;20054;-52
2022/04/09 07:31:02;;;;;;;7.23;1.53;;;;;;;15.69;53.16;100885.88;5021241;28;20042;-49
2022/04/09 07:33:27;;;;;;;10.20;1.93;;;;;;;14.57;55.82;100878.59;5025604;28;20037;-52
2022/04/09 07:35:53;;;;;;;8.10;1.43;;;;;;;14.77;55.99;100881.13;5015841;28;20037;-49
2022/04/09 07:38:19;;;;;;;9.80;3.50;;;;;;;15.28;55.03;100897.16;5016867;28;20037;-49
2022/04/09 07:40:44;;;;;;;17.27;5.50;;;;;;;14.35;58.25;100921.22;5024640;28;20048;-49
2022/04/09 07:43:10;;;;;;;21.75;6.78;;;;;;;14.63;57.95;100903.78;5026581;28;20045;-53
2022/04/09 07:45:35;;;;;;;17.47;5.57;;;;;;;14.89;60.69;100888.47;5017495;28;20056;-50
2022/04/09 07:48:01;;;;;;;22.50;6.55;;;;;;;14.65;59.48;100888.25;5022066;28;20030;-50
2022/04/09 07:50:28;;;;;;;33.08;10.88;;;;;;;14.74;58.85;100903.09;5030195;28;20041;-57
2022/04/09 07:52:55;;;;;;;28.65;7.65;;;;;;;15.12;57.30;100898.59;5029490;28;20038;-50
2022/04/09 07:55:21;;;;;;;14.55;4.50;;;;;;;15.49;54.11;100912.03;5022394;28;20046;-52
2022/04/09 07:57:50;;;;;;;10.15;2.80;;;;;;;15.17;55.01;100916.75;5027401;28;20034;-53
2022/04/09 08:00:16;;;;;;;5.15;2.00;;;;;;;14.88;55.80;100922.66;5025296;28;20041;-48
2022/04/09 08:02:42;;;;;;;9.45;2.35;;;;;;;14.87;55.83;100917.47;5030211;28;20124;-51
2022/04/09 08:05:10;;;;;;;12.70;3.50;;;;;;;15.69;54.60;100927.13;5035231;28;20038;-54
2022/04/09 08:07:38;;;;;;;20.42;3.67;;;;;;;15.47;58.23;100932.19;5035156;28;20042;-52
2022/04/09 08:10:04;;;;;;;14.77;3.05;;;;;;;15.56;61.58;100936.19;5028834;28;20045;-52
2022/04/09 08:12:30;;;;;;;18.05;3.40;;;;;;;16.41;59.74;100940.84;5026440;28;20048;-50
2022/04/09 08:14:56;;;;;;;23.00;5.00;;;;;;;14.77;66.47;100944.91;5029895;28;20102;-49
2022/04/09 08:17:21;;;;;;;18.30;6.03;;;;;;;14.87;74.11;100947.09;5021995;28;20045;-52
2022/04/09 08:19:47;;;;;;;24.10;7.00;;;;;;;14.16;76.69;100948.03;5029018;28;20033;-50
2022/04/09 08:22:13;;;;;;;39.15;9.70;;;;;;;14.39;78.75;100945.78;5023791;28;20094;-54
2022/04/09 08:24:41;;;;;;;25.30;7.47;;;;;;;14.74;77.47;100945.34;5024882;28;20038;-52
2022/04/09 08:27:08;;;;;;;35.67;9.35;;;;;;;14.43;74.20;100934.38;5022841;28;20552;-51
2022/04/09 08:29:33;;;;;;;26.95;6.30;;;;;;;14.58;78.87;100941.31;5024077;28;20034;-53
2022/04/09 08:32:01;;;;;;;16.08;5.53;;;;;;;14.75;73.45;100939.72;5026162;28;20045;-53
2022/04/09 08:34:29;;;;;;;23.30;5.20;;;;;;;14.64;74.20;100943.13;5034315;28;20671;-55
2022/04/09 08:36:55;;;;;;;13.88;2.65;;;;;;;15.75;69.64;100946.97;5029277;28;20026;-51
2022/04/09 08:39:21;;;;;;;11.95;3.10;;;;;;;15.86;67.00;100948.06;5029536;28;20053;-54
2022/04/09 08:41:47;;;;;;;13.73;3.22;;;;;;;15.80;63.51;100959.75;5023251;28;20029;-52
2022/04/09 08:44:13;;;;;;;10.05;3.15;;;;;;;15.77;62.64;100939.47;5029657;28;20114;-51
2022/04/09 08:46:40;;;;;;;19.50;3.60;;;;;;;15.56;65.92;100955.06;5040287;28;20044;-50
2022/04/09 08:49:06;;;;;;;19.85;4.05;;;;;;;16.64;63.46;100958.97;5027532;28;20391;-52
2022/04/09 08:51:33;;;;;;;9.27;2.72;;;;;;;17.57;58.13;100961.06;5025975;28;20034;-48
2022/04/09 08:54:02;;;;;;;;;;;;;;;16.93;58.78;100967.22;5032467;28;20038;-49
2022/04/09 08:56:34;;;;;;;9.50;2.92;;;;;;;16.78;59.55;100971.19;5031047;28;19917;-54
2022/04/09 08:59:00;;;;;;;21.65;2.83;;;;;;;16.70;58.14;100963.44;5027773;28;20484;-52
2022/04/09 09:01:26;;;;;;;;;;;;;;;16.65;59.39;100971.44;5029613;28;20077;-52
2022/04/09 09:03:52;;;;;;;14.67;3.20;;;;;;;17.77;55.75;100976.03;5027147;28;19914;-52
2022/04/09 09:06:27;;;;;;;11.57;2.05;;;;;;;17.36;60.39;100978.72;5022629;28;20097;-52
2022/04/09 09:08:53;;;;;;;7.50;1.70;;;;;;;16.42;53.92;100975.72;5027767;28;20037;-50
2022/04/09 09:11:20;;;;;;;3.50;0.80;;;;;;;15.29;55.87;100992.25;5033025;28;20029;-54
2022/04/09 09:14:00;;;;;;;3.85;0.93;;;;;;;15.93;56.59;100989.28;5032891;28;20076;-50
2022/04/09 09:16:28;;;;;;;2.50;1.00;;;;;;;15.61;55.67;100995.63;5026295;28;20035;-49
2022/04/09 09:18:55;;;;;;;5.57;1.10;;;;;;;16.53;52.93;101008.38;5032877;28;20101;-51
2022/04/09 09:21:26;;;;;;;6.07;1.33;;;;;;;17.09;50.30;101005.44;5032023;28;20034;-54
2022/04/09 09:23:52;;;;;;;5.30;1.27;;;;;;;17.77;50.20;101024.72;5031860;28;20037;-53
2022/04/09 09:26:22;;;;;;;3.65;1.50;;;;;;;18.31;46.94;101019.00;5032539;28;20101;-50
2022/04/09 09:28:55;;;;;;;3.57;0.80;;;;;;;18.46;46.14;101025.78;5032662;28;20102;-52
2022/04/09 09:31:45;;;;;;;2.53;0.53;;;;;;;18.59;43.86;101013.81;5032913;28;20327;-52
2022/04/09 09:34:15;;;;;;;0.40;0.40;;;;;;;18.46;43.62;101029.31;5029861;28;20353;-50
2022/04/09 09:36:43;;;;;;;0.43;0.43;;;;;;;17.80;45.83;101045.06;5032671;28;20271;-51
2022/04/09 09:39:10;;;;;;;0.83;0.50;;;;;;;17.99;44.58;101038.41;5032566;28;20271;-50
2022/04/09 09:41:47;;;;;;;2.43;0.63;;;;;;;17.37;45.66;101047.94;5032587;28;20442;-53
2022/04/09 09:44:13;;;;;;;1.43;0.80;;;;;;;17.38;45.61;101044.16;5032775;28;20339;-47
2022/04/09 09:46:38;;;;;;;2.20;0.80;;;;;;;19.44;42.91;101057.13;5032437;28;20302;-49
2022/04/09 09:49:04;;;;;;;2.30;0.65;;;;;;;19.15;39.84;101070.00;5032683;28;20066;-48
2022/04/09 09:51:30;;;;;;;0.85;0.50;;;;;;;19.61;42.03;101084.25;5032555;28;20022;-52
2022/04/09 09:54:13;;;;;;;4.93;1.20;;;;;;;19.33;43.83;101096.03;5031952;28;20045;-51
2022/04/09 09:56:44;;;;;;;2.30;1.10;;;;;;;18.76;45.82;101093.19;5034722;28;20031;-54
2022/04/09 09:59:14;;;;;;;8.50;1.40;;;;;;;18.31;46.79;101100.22;5021586;28;20279;-52
2022/04/09 10:01:44;;;;;;;3.50;1.23;;;;;;;18.01;47.71;101100.41;5024359;28;20282;-51
2022/04/09 10:04:12;;;;;;;9.90;1.67;;;;;;;17.47;49.41;101099.53;5037831;28;20275;-53
2022/04/09 10:06:38;;;;;;;6.60;1.20;;;;;;;15.98;53.51;101104.56;5031811;28;20303;-48
2022/04/09 10:09:07;;;;;;;;;;;;;;;16.10;51.89;101104.66;5032303;28;20309;-48
2022/04/09 10:11:37;;;;;;;3.47;0.80;;;;;;;15.93;53.39;101099.03;5031882;28;19914;-48
2022/04/09 10:14:04;;;;;;;5.05;1.02;;;;;;;15.99;52.88;101098.94;5031976;28;20061;-49
2022/04/09 10:16:33;;;;;;;20.05;3.38;;;;;;;16.74;54.70;101080.72;5027929;28;20038;-51
2022/04/09 10:19:00;;;;;;;7.60;1.52;;;;;;;16.44;54.65;101095.09;5028150;28;20030;-47
2022/04/09 10:21:28;;;;;;;2.58;0.93;;;;;;;16.24;55.50;101108.00;5026224;28;20064;-48
2022/04/09 10:23:57;;;;;;;9.20;1.77;;;;;;;16.18;57.81;101132.16;5026797;28;20026;-49
2022/04/09 10:26:25;;;;;;;7.68;1.95;;;;;;;15.79;63.28;101131.50;5030072;28;20112;-50
2022/04/09 10:28:51;;;;;;;5.28;1.52;;;;;;;14.71;66.74;101128.84;5028447;28;20135;-51
2022/04/09 10:31:23;;;;;;;6.80;1.98;;;;;;;14.58;67.76;101111.69;5031932;28;20037;-50
2022/04/09 10:33:56;;;;;;;7.43;1.55;;;;;;;14.70;68.69;101095.66;5031860;28;20034;-50
2022/04/09 10:36:48;;;;;;;6.80;1.65;;;;;;;15.15;65.88;101097.47;5031395;28;20034;-47
2022/04/09 10:39:49;;;;;;;6.53;1.27;;;;;;;15.41;64.27;101092.06;5014772;28;20041;-48
2022/04/09 10:42:47;;;;;;;4.45;1.60;;;;;;;15.63;60.29;101093.28;5030467;28;20105;-49
2022/04/09 10:45:12;;;;;;;10.60;2.30;;;;;;;16.13;62.14;101088.81;5027209;28;20135;-48
2022/04/09 10:48:04;;;;;;;11.50;3.30;;;;;;;15.84;60.91;101080.41;5030904;28;20053;-50
2022/04/09 10:50:55;;;;;;;16.42;4.13;;;;;;;18.91;51.15;101086.38;5030407;28;20110;-51
2022/04/09 10:53:23;;;;;;;10.73;2.80;;;;;;;19.17;50.33;101084.16;5022217;28;20045;-48
2022/04/09 10:56:40;;;;;;;8.67;2.83;;;;;;;21.27;46.41;101085.97;5029646;28;20072;-52
2022/04/09 10:59:06;;;;;;;6.87;3.23;;;;;;;22.82;44.80;101090.38;5074795;28;20287;-52
2022/04/09 11:01:46;;;;;;;9.93;3.13;;;;;;;22.64;42.28;101087.09;5025860;28;20385;-51
2022/04/09 11:04:36;;;;;;;11.97;3.17;;;;;;;24.24;40.34;101085.97;5030425;28;20052;-48
2022/04/09 11:07:10;;;;;;;6.47;2.20;;;;;;;25.01;38.51;101124.81;5019175;28;20275;-51
2022/04/09 11:10:00;;;;;;;5.93;1.80;;;;;;;20.45;46.87;101130.34;5029929;28;20053;-54
2022/04/09 11:12:30;;;;;;;3.53;1.30;;;;;;;19.31;48.01;101128.81;5039893;28;20053;-50
2022/04/09 11:14:58;;;;;;;9.03;2.07;;;;;;;18.80;50.40;101115.22;5024239;28;20272;-52
2022/04/09 11:17:36;;;;;;;7.73;3.10;;;;;;;18.49;50.92;101123.59;5030462;28;20275;-48
2022/04/09 11:20:06;;;;;;;3.80;1.40;;;;;;;18.12;46.34;101128.56;5031104;28;20274;-49
2022/04/09 11:22:33;;;;;;;2.90;1.00;;;;;;;18.96;45.92;101127.13;5043342;28;20271;-49
2022/04/09 11:24:59;;;;;;;4.63;1.20;;;;;;;19.18;46.43;101140.00;5023637;28;20347;-52
2022/04/09 11:27:27;;;;;;;6.43;1.65;;;;;;;18.95;47.80;101125.50;5037487;28;20271;-52
2022/04/09 11:29:55;;;;;;;6.73;1.30;;;;;;;19.69;46.85;101133.72;5032241;28;20041;-50